sensor_id;sensor_type;location;lat;lon;timestamp;P1;durP1;ratioP1;P2;durP2;ratioP2
1479;SDS011;732;51.698;4.886;2023-02-04T00:00:42;17.13;;;3.57;;
1479;SDS011;732;51.698;4.886;2023-02-04T00:03:11;23.90;;;5.30;;
1479;SDS011;732;51.698;4.886;2023-02-04T00:05:40;18.87;;;4.50;;
1479;SDS011;732;51.698;4.886;2023-02-04T00:08:10;17.73;;;5.13;;
1479;SDS011;732;51.698;4.886;2023-02-04T00:10:39;13.47;;;6.10;;
1479;SDS011;732;51.698;4.886;2023-02-04T00:13:07;17.20;;;5.90;;
1479;SDS011;732;51.698;4.886;2023-02-04T00:15:36;20.20;;;6.73;;
1479;SDS011;732;51.698;4.886;2023-02-04T00:18:04;15.57;;;5.40;;
1479;SDS011;732;51.698;4.886;2023-02-04T00:20:34;12.37;;;4.27;;
1479;SDS011;732;51.698;4.886;2023-02-04T00:23:02;11.40;;;4.47;;
1479;SDS011;732;51.698;4.886;2023-02-04T00:25:32;20.07;;;5.00;;
1479;SDS011;732;51.698;4.886;2023-02-04T00:28:00;20.70;;;5.23;;
1479;SDS011;732;51.698;4.886;2023-02-04T00:30:30;18.37;;;4.00;;
1479;SDS011;732;51.698;4.886;2023-02-04T00:32:59;21.50;;;4.37;;
1479;SDS011;732;51.698;4.886;2023-02-04T00:35:27;23.07;;;3.70;;
1479;SDS011;732;51.698;4.886;2023-02-04T00:37:55;17.47;;;5.30;;
1479;SDS011;732;51.698;4.886;2023-02-04T00:40:24;18.93;;;5.00;;
1479;SDS011;732;51.698;4.886;2023-02-04T00:42:54;15.10;;;3.87;;
1479;SDS011;732;51.698;4.886;2023-02-04T00:45:22;17.30;;;5.20;;
1479;SDS011;732;51.698;4.886;2023-02-04T00:47:51;21.00;;;5.83;;
1479;SDS011;732;51.698;4.886;2023-02-04T00:50:19;19.63;;;5.07;;
1479;SDS011;732;51.698;4.886;2023-02-04T00:52:48;13.00;;;5.40;;
1479;SDS011;732;51.698;4.886;2023-02-04T00:55:18;18.60;;;4.10;;
1479;SDS011;732;51.698;4.886;2023-02-04T00:57:46;13.13;;;4.80;;
1479;SDS011;732;51.698;4.886;2023-02-04T01:00:16;27.83;;;4.40;;
1479;SDS011;732;51.698;4.886;2023-02-04T01:02:45;21.77;;;6.43;;
1479;SDS011;732;51.698;4.886;2023-02-04T01:05:13;22.40;;;5.30;;
1479;SDS011;732;51.698;4.886;2023-02-04T01:07:43;20.30;;;5.90;;
1479;SDS011;732;51.698;4.886;2023-02-04T01:10:11;11.40;;;4.80;;
1479;SDS011;732;51.698;4.886;2023-02-04T01:12:41;20.83;;;4.90;;
1479;SDS011;732;51.698;4.886;2023-02-04T01:15:10;16.50;;;4.67;;
1479;SDS011;732;51.698;4.886;2023-02-04T01:17:40;18.70;;;4.50;;
1479;SDS011;732;51.698;4.886;2023-02-04T01:20:09;14.53;;;4.60;;
1479;SDS011;732;51.698;4.886;2023-02-04T01:22:38;13.10;;;4.00;;
1479;SDS011;732;51.698;4.886;2023-02-04T01:25:07;18.33;;;4.50;;
1479;SDS011;732;51.698;4.886;2023-02-04T01:27:40;19.77;;;5.23;;
1479;SDS011;732;51.698;4.886;2023-02-04T01:30:09;21.25;;;5.00;;
1479;SDS011;732;51.698;4.886;2023-02-04T01:32:41;16.90;;;5.50;;
1479;SDS011;732;51.698;4.886;2023-02-04T01:35:09;33.83;;;5.80;;
1479;SDS011;732;51.698;4.886;2023-02-04T01:37:38;17.77;;;6.47;;
1479;SDS011;732;51.698;4.886;2023-02-04T01:40:06;18.77;;;5.67;;
1479;SDS011;732;51.698;4.886;2023-02-04T01:42:37;20.73;;;4.50;;
1479;SDS011;732;51.698;4.886;2023-02-04T01:45:06;16.07;;;5.30;;
1479;SDS011;732;51.698;4.886;2023-02-04T01:47:36;21.20;;;5.50;;
1479;SDS011;732;51.698;4.886;2023-02-04T01:50:09;26.00;;;5.70;;
1479;SDS011;732;51.698;4.886;2023-02-04T01:52:41;17.60;;;5.90;;
1479;SDS011;732;51.698;4.886;2023-02-04T01:55:12;17.13;;;6.17;;
1479;SDS011;732;51.698;4.886;2023-02-04T01:57:42;21.63;;;6.30;;
1479;SDS011;732;51.698;4.886;2023-02-04T02:00:13;12.47;;;5.37;;
1479;SDS011;732;51.698;4.886;2023-02-04T02:02:46;21.03;;;5.43;;
1479;SDS011;732;51.698;4.886;2023-02-04T02:05:20;18.57;;;5.53;;
1479;SDS011;732;51.698;4.886;2023-02-04T02:07:52;25.80;;;6.27;;
1479;SDS011;732;51.698;4.886;2023-02-04T02:10:23;30.43;;;5.17;;
1479;SDS011;732;51.698;4.886;2023-02-04T02:12:52;25.80;;;5.57;;
1479;SDS011;732;51.698;4.886;2023-02-04T02:15:22;21.47;;;4.57;;
1479;SDS011;732;51.698;4.886;2023-02-04T02:17:51;19.23;;;5.50;;
1479;SDS011;732;51.698;4.886;2023-02-04T02:20:23;13.67;;;5.13;;
1479;SDS011;732;51.698;4.886;2023-02-04T02:22:58;17.23;;;4.93;;
1479;SDS011;732;51.698;4.886;2023-02-04T02:25:33;20.20;;;5.03;;
1479;SDS011;732;51.698;4.886;2023-02-04T02:28:03;20.13;;;4.80;;
1479;SDS011;732;51.698;4.886;2023-02-04T02:30:38;14.70;;;4.80;;
1479;SDS011;732;51.698;4.886;2023-02-04T02:33:08;31.43;;;4.90;;
1479;SDS011;732;51.698;4.886;2023-02-04T02:35:36;9.27;;;4.27;;
1479;SDS011;732;51.698;4.886;2023-02-04T02:38:05;18.43;;;5.00;;
1479;SDS011;732;51.698;4.886;2023-02-04T02:40:34;20.30;;;4.63;;
1479;SDS011;732;51.698;4.886;2023-02-04T02:43:04;13.40;;;4.30;;
1479;SDS011;732;51.698;4.886;2023-02-04T02:45:33;27.27;;;4.23;;
1479;SDS011;732;51.698;4.886;2023-02-04T02:48:02;17.37;;;4.70;;
1479;SDS011;732;51.698;4.886;2023-02-04T02:50:31;17.53;;;5.40;;
1479;SDS011;732;51.698;4.886;2023-02-04T02:53:00;21.60;;;4.90;;
1479;SDS011;732;51.698;4.886;2023-02-04T02:55:30;17.53;;;4.47;;
1479;SDS011;732;51.698;4.886;2023-02-04T02:58:02;17.73;;;4.57;;
1479;SDS011;732;51.698;4.886;2023-02-04T03:00:32;16.47;;;5.70;;
1479;SDS011;732;51.698;4.886;2023-02-04T03:03:01;21.07;;;5.47;;
1479;SDS011;732;51.698;4.886;2023-02-04T03:05:36;24.87;;;5.90;;
1479;SDS011;732;51.698;4.886;2023-02-04T03:08:09;17.20;;;5.77;;
1479;SDS011;732;51.698;4.886;2023-02-04T03:10:39;19.90;;;5.37;;
1479;SDS011;732;51.698;4.886;2023-02-04T03:13:12;19.13;;;4.93;;
1479;SDS011;732;51.698;4.886;2023-02-04T03:15:43;22.23;;;5.87;;
1479;SDS011;732;51.698;4.886;2023-02-04T03:18:15;18.73;;;4.97;;
1479;SDS011;732;51.698;4.886;2023-02-04T03:20:46;19.03;;;5.00;;
1479;SDS011;732;51.698;4.886;2023-02-04T03:23:17;17.20;;;5.90;;
1479;SDS011;732;51.698;4.886;2023-02-04T03:25:46;17.70;;;6.00;;
1479;SDS011;732;51.698;4.886;2023-02-04T03:28:19;36.77;;;7.07;;
1479;SDS011;732;51.698;4.886;2023-02-04T03:30:48;26.50;;;7.30;;
1479;SDS011;732;51.698;4.886;2023-02-04T03:33:19;18.00;;;6.03;;
1479;SDS011;732;51.698;4.886;2023-02-04T03:35:47;20.93;;;6.87;;
1479;SDS011;732;51.698;4.886;2023-02-04T03:38:16;26.20;;;7.10;;
1479;SDS011;732;51.698;4.886;2023-02-04T03:40:45;35.43;;;7.97;;
1479;SDS011;732;51.698;4.886;2023-02-04T03:43:13;29.93;;;7.60;;
1479;SDS011;732;51.698;4.886;2023-02-04T03:45:43;40.97;;;7.57;;
1479;SDS011;732;51.698;4.886;2023-02-04T03:48:12;40.87;;;7.80;;
1479;SDS011;732;51.698;4.886;2023-02-04T03:50:40;25.50;;;6.23;;
1479;SDS011;732;51.698;4.886;2023-02-04T03:53:09;22.63;;;6.87;;
1479;SDS011;732;51.698;4.886;2023-02-04T03:55:37;23.77;;;6.60;;
1479;SDS011;732;51.698;4.886;2023-02-04T03:58:06;27.23;;;7.50;;
1479;SDS011;732;51.698;4.886;2023-02-04T04:00:34;28.93;;;6.87;;
1479;SDS011;732;51.698;4.886;2023-02-04T04:03:04;25.43;;;7.07;;
1479;SDS011;732;51.698;4.886;2023-02-04T04:05:33;25.40;;;7.80;;
1479;SDS011;732;51.698;4.886;2023-02-04T04:08:01;23.97;;;7.00;;
1479;SDS011;732;51.698;4.886;2023-02-04T04:10:29;32.43;;;6.77;;
1479;SDS011;732;51.698;4.886;2023-02-04T04:12:58;24.60;;;7.00;;
1479;SDS011;732;51.698;4.886;2023-02-04T04:15:27;26.60;;;7.57;;
1479;SDS011;732;51.698;4.886;2023-02-04T04:17:56;30.57;;;8.07;;
1479;SDS011;732;51.698;4.886;2023-02-04T04:20:25;20.03;;;6.40;;
1479;SDS011;732;51.698;4.886;2023-02-04T04:22:54;24.63;;;7.07;;
1479;SDS011;732;51.698;4.886;2023-02-04T04:25:22;34.37;;;7.03;;
1479;SDS011;732;51.698;4.886;2023-02-04T04:27:51;29.53;;;7.07;;
1479;SDS011;732;51.698;4.886;2023-02-04T04:30:19;31.40;;;7.23;;
1479;SDS011;732;51.698;4.886;2023-02-04T04:32:48;22.27;;;7.10;;
1479;SDS011;732;51.698;4.886;2023-02-04T04:35:16;26.40;;;6.47;;
1479;SDS011;732;51.698;4.886;2023-02-04T04:37:46;24.30;;;6.40;;
1479;SDS011;732;51.698;4.886;2023-02-04T04:40:15;20.40;;;7.27;;
1479;SDS011;732;51.698;4.886;2023-02-04T04:42:43;24.00;;;6.07;;
1479;SDS011;732;51.698;4.886;2023-02-04T04:45:12;30.00;;;6.67;;
1479;SDS011;732;51.698;4.886;2023-02-04T04:47:40;21.33;;;6.03;;
1479;SDS011;732;51.698;4.886;2023-02-04T04:50:09;15.90;;;6.23;;
1479;SDS011;732;51.698;4.886;2023-02-04T04:52:38;24.33;;;7.07;;
1479;SDS011;732;51.698;4.886;2023-02-04T04:55:08;28.07;;;7.10;;
1479;SDS011;732;51.698;4.886;2023-02-04T04:57:37;21.03;;;5.93;;
1479;SDS011;732;51.698;4.886;2023-02-04T05:00:06;24.87;;;7.90;;
1479;SDS011;732;51.698;4.886;2023-02-04T05:02:38;23.43;;;7.80;;
1479;SDS011;732;51.698;4.886;2023-02-04T05:05:07;26.57;;;7.53;;
1479;SDS011;732;51.698;4.886;2023-02-04T05:07:35;31.77;;;8.20;;
1479;SDS011;732;51.698;4.886;2023-02-04T05:10:04;25.50;;;7.00;;
1479;SDS011;732;51.698;4.886;2023-02-04T05:12:35;29.10;;;6.93;;
1479;SDS011;732;51.698;4.886;2023-02-04T05:15:03;21.50;;;7.87;;
1479;SDS011;732;51.698;4.886;2023-02-04T05:17:32;36.50;;;9.57;;
1479;SDS011;732;51.698;4.886;2023-02-04T05:20:01;19.10;;;8.10;;
1479;SDS011;732;51.698;4.886;2023-02-04T05:22:29;24.20;;;7.77;;
1479;SDS011;732;51.698;4.886;2023-02-04T05:24:58;25.90;;;7.83;;
1479;SDS011;732;51.698;4.886;2023-02-04T05:27:26;22.03;;;8.00;;
1479;SDS011;732;51.698;4.886;2023-02-04T05:29:56;23.13;;;9.23;;
1479;SDS011;732;51.698;4.886;2023-02-04T05:32:24;21.23;;;8.30;;
1479;SDS011;732;51.698;4.886;2023-02-04T05:34:53;27.97;;;9.73;;
1479;SDS011;732;51.698;4.886;2023-02-04T05:37:21;25.27;;;8.50;;
1479;SDS011;732;51.698;4.886;2023-02-04T05:39:50;27.27;;;8.80;;
1479;SDS011;732;51.698;4.886;2023-02-04T05:42:18;29.03;;;9.90;;
1479;SDS011;732;51.698;4.886;2023-02-04T05:44:47;29.50;;;9.87;;
1479;SDS011;732;51.698;4.886;2023-02-04T05:47:17;26.83;;;10.47;;
1479;SDS011;732;51.698;4.886;2023-02-04T05:49:45;41.07;;;10.57;;
1479;SDS011;732;51.698;4.886;2023-02-04T05:52:14;36.03;;;11.23;;
1479;SDS011;732;51.698;4.886;2023-02-04T05:54:43;33.70;;;10.50;;
1479;SDS011;732;51.698;4.886;2023-02-04T05:57:11;25.07;;;11.20;;
1479;SDS011;732;51.698;4.886;2023-02-04T05:59:39;36.20;;;12.30;;
1479;SDS011;732;51.698;4.886;2023-02-04T06:02:08;37.77;;;10.80;;
1479;SDS011;732;51.698;4.886;2023-02-04T06:04:38;28.17;;;12.00;;
1479;SDS011;732;51.698;4.886;2023-02-04T06:07:07;34.43;;;12.70;;
1479;SDS011;732;51.698;4.886;2023-02-04T06:09:35;37.43;;;12.60;;
1479;SDS011;732;51.698;4.886;2023-02-04T06:12:04;40.07;;;13.63;;
1479;SDS011;732;51.698;4.886;2023-02-04T06:14:32;27.27;;;12.47;;
1479;SDS011;732;51.698;4.886;2023-02-04T06:17:00;40.97;;;13.20;;
1479;SDS011;732;51.698;4.886;2023-02-04T06:19:29;43.03;;;12.30;;
1479;SDS011;732;51.698;4.886;2023-02-04T06:21:59;33.60;;;12.50;;
1479;SDS011;732;51.698;4.886;2023-02-04T06:24:27;35.63;;;12.17;;
1479;SDS011;732;51.698;4.886;2023-02-04T06:26:56;43.67;;;11.50;;
1479;SDS011;732;51.698;4.886;2023-02-04T06:29:24;33.40;;;13.93;;
1479;SDS011;732;51.698;4.886;2023-02-04T06:31:52;29.83;;;11.77;;
1479;SDS011;732;51.698;4.886;2023-02-04T06:34:21;32.20;;;12.50;;
1479;SDS011;732;51.698;4.886;2023-02-04T06:36:49;36.60;;;13.53;;
1479;SDS011;732;51.698;4.886;2023-02-04T06:39:19;36.27;;;12.80;;
1479;SDS011;732;51.698;4.886;2023-02-04T06:41:48;36.93;;;12.20;;
1479;SDS011;732;51.698;4.886;2023-02-04T06:44:16;30.67;;;12.80;;
1479;SDS011;732;51.698;4.886;2023-02-04T06:46:44;34.53;;;13.50;;
1479;SDS011;732;51.698;4.886;2023-02-04T06:49:13;35.80;;;12.30;;
1479;SDS011;732;51.698;4.886;2023-02-04T06:51:41;38.43;;;11.70;;
1479;SDS011;732;51.698;4.886;2023-02-04T06:54:10;27.20;;;11.00;;
1479;SDS011;732;51.698;4.886;2023-02-04T06:56:39;36.07;;;12.57;;
1479;SDS011;732;51.698;4.886;2023-02-04T06:59:09;29.37;;;10.20;;
1479;SDS011;732;51.698;4.886;2023-02-04T07:01:37;31.90;;;11.43;;
1479;SDS011;732;51.698;4.886;2023-02-04T07:04:06;31.83;;;10.97;;
1479;SDS011;732;51.698;4.886;2023-02-04T07:06:34;32.57;;;11.10;;
1479;SDS011;732;51.698;4.886;2023-02-04T07:09:02;26.20;;;11.10;;
1479;SDS011;732;51.698;4.886;2023-02-04T07:11:31;30.87;;;9.83;;
1479;SDS011;732;51.698;4.886;2023-02-04T07:14:00;22.70;;;9.40;;
1479;SDS011;732;51.698;4.886;2023-02-04T07:16:29;31.13;;;9.77;;
1479;SDS011;732;51.698;4.886;2023-02-04T07:18:58;33.20;;;9.10;;
1479;SDS011;732;51.698;4.886;2023-02-04T07:21:26;36.87;;;10.43;;
1479;SDS011;732;51.698;4.886;2023-02-04T07:23:54;28.43;;;10.50;;
1479;SDS011;732;51.698;4.886;2023-02-04T07:26:23;24.47;;;9.70;;
1479;SDS011;732;51.698;4.886;2023-02-04T07:28:52;29.60;;;9.73;;
1479;SDS011;732;51.698;4.886;2023-02-04T07:31:22;27.30;;;9.00;;
1479;SDS011;732;51.698;4.886;2023-02-04T07:33:50;29.00;;;9.80;;
1479;SDS011;732;51.698;4.886;2023-02-04T07:36:19;33.67;;;9.63;;
1479;SDS011;732;51.698;4.886;2023-02-04T07:38:47;35.07;;;10.80;;
1479;SDS011;732;51.698;4.886;2023-02-04T07:41:15;30.47;;;10.13;;
1479;SDS011;732;51.698;4.886;2023-02-04T07:43:44;35.10;;;10.40;;
1479;SDS011;732;51.698;4.886;2023-02-04T07:46:13;43.57;;;11.30;;
1479;SDS011;732;51.698;4.886;2023-02-04T07:48:43;35.53;;;10.80;;
1479;SDS011;732;51.698;4.886;2023-02-04T07:51:11;41.87;;;11.90;;
1479;SDS011;732;51.698;4.886;2023-02-04T07:53:40;31.77;;;11.67;;
1479;SDS011;732;51.698;4.886;2023-02-04T07:56:08;25.73;;;10.33;;
1479;SDS011;732;51.698;4.886;2023-02-04T07:58:37;34.10;;;11.47;;
1479;SDS011;732;51.698;4.886;2023-02-04T08:01:05;38.50;;;13.23;;
1479;SDS011;732;51.698;4.886;2023-02-04T08:03:33;41.53;;;12.40;;
1479;SDS011;732;51.698;4.886;2023-02-04T08:06:04;37.10;;;12.80;;
1479;SDS011;732;51.698;4.886;2023-02-04T08:08:32;38.70;;;12.67;;
1479;SDS011;732;51.698;4.886;2023-02-04T08:11:01;34.23;;;12.33;;
1479;SDS011;732;51.698;4.886;2023-02-04T08:13:30;36.13;;;11.00;;
1479;SDS011;732;51.698;4.886;2023-02-04T08:15:58;40.30;;;12.77;;
1479;SDS011;732;51.698;4.886;2023-02-04T08:18:27;47.93;;;14.40;;
1479;SDS011;732;51.698;4.886;2023-02-04T08:20:55;57.13;;;15.27;;
1479;SDS011;732;51.698;4.886;2023-02-04T08:23:25;46.60;;;14.63;;
1479;SDS011;732;51.698;4.886;2023-02-04T08:25:54;49.60;;;14.73;;
1479;SDS011;732;51.698;4.886;2023-02-04T08:28:23;40.03;;;13.47;;
1479;SDS011;732;51.698;4.886;2023-02-04T08:30:52;56.80;;;15.33;;
1479;SDS011;732;51.698;4.886;2023-02-04T08:33:21;51.83;;;15.70;;
1479;SDS011;732;51.698;4.886;2023-02-04T08:35:51;50.50;;;14.53;;
1479;SDS011;732;51.698;4.886;2023-02-04T08:38:19;40.17;;;15.40;;
1479;SDS011;732;51.698;4.886;2023-02-04T08:40:49;49.93;;;15.60;;
1479;SDS011;732;51.698;4.886;2023-02-04T08:43:18;40.53;;;14.50;;
1479;SDS011;732;51.698;4.886;2023-02-04T08:45:46;40.27;;;14.83;;
1479;SDS011;732;51.698;4.886;2023-02-04T08:48:15;48.23;;;17.63;;
1479;SDS011;732;51.698;4.886;2023-02-04T08:50:43;46.73;;;15.50;;
1479;SDS011;732;51.698;4.886;2023-02-04T08:53:12;46.30;;;14.77;;
1479;SDS011;732;51.698;4.886;2023-02-04T08:55:40;50.10;;;14.93;;
1479;SDS011;732;51.698;4.886;2023-02-04T08:58:10;60.60;;;16.67;;
1479;SDS011;732;51.698;4.886;2023-02-04T09:00:39;40.70;;;14.40;;
1479;SDS011;732;51.698;4.886;2023-02-04T09:03:09;42.57;;;13.17;;
1479;SDS011;732;51.698;4.886;2023-02-04T09:05:38;32.57;;;12.63;;
1479;SDS011;732;51.698;4.886;2023-02-04T09:08:07;50.00;;;14.63;;
1479;SDS011;732;51.698;4.886;2023-02-04T09:10:36;51.50;;;15.03;;
1479;SDS011;732;51.698;4.886;2023-02-04T09:13:04;44.10;;;13.43;;
1479;SDS011;732;51.698;4.886;2023-02-04T09:15:36;53.03;;;14.87;;
1479;SDS011;732;51.698;4.886;2023-02-04T09:18:04;45.77;;;14.73;;
1479;SDS011;732;51.698;4.886;2023-02-04T09:20:40;36.77;;;14.40;;
1479;SDS011;732;51.698;4.886;2023-02-04T09:23:09;46.17;;;14.13;;
1479;SDS011;732;51.698;4.886;2023-02-04T09:25:39;43.07;;;13.47;;
1479;SDS011;732;51.698;4.886;2023-02-04T09:28:09;39.83;;;11.90;;
1479;SDS011;732;51.698;4.886;2023-02-04T09:30:41;37.20;;;13.13;;
1479;SDS011;732;51.698;4.886;2023-02-04T09:33:12;40.20;;;13.20;;
1479;SDS011;732;51.698;4.886;2023-02-04T09:35:43;36.67;;;12.50;;
1479;SDS011;732;51.698;4.886;2023-02-04T09:38:11;46.33;;;11.87;;
1479;SDS011;732;51.698;4.886;2023-02-04T09:40:41;41.63;;;12.87;;
1479;SDS011;732;51.698;4.886;2023-02-04T09:43:15;36.33;;;12.40;;
1479;SDS011;732;51.698;4.886;2023-02-04T09:45:52;32.33;;;12.07;;
1479;SDS011;732;51.698;4.886;2023-02-04T09:48:21;39.07;;;11.77;;
1479;SDS011;732;51.698;4.886;2023-02-04T09:50:52;38.67;;;12.17;;
1479;SDS011;732;51.698;4.886;2023-02-04T09:53:32;37.63;;;10.77;;
1479;SDS011;732;51.698;4.886;2023-02-04T09:56:02;39.53;;;11.63;;
1479;SDS011;732;51.698;4.886;2023-02-04T09:58:32;23.87;;;9.83;;
1479;SDS011;732;51.698;4.886;2023-02-04T10:01:08;25.50;;;9.50;;
1479;SDS011;732;51.698;4.886;2023-02-04T10:03:41;32.20;;;9.10;;
1479;SDS011;732;51.698;4.886;2023-02-04T10:06:14;28.30;;;7.87;;
1479;SDS011;732;51.698;4.886;2023-02-04T10:08:44;32.27;;;7.17;;
1479;SDS011;732;51.698;4.886;2023-02-04T10:11:16;27.50;;;7.87;;
1479;SDS011;732;51.698;4.886;2023-02-04T10:13:48;32.57;;;7.77;;
1479;SDS011;732;51.698;4.886;2023-02-04T10:16:21;24.80;;;8.10;;
1479;SDS011;732;51.698;4.886;2023-02-04T10:18:57;23.13;;;6.30;;
1479;SDS011;732;51.698;4.886;2023-02-04T10:21:27;22.77;;;6.77;;
1479;SDS011;732;51.698;4.886;2023-02-04T10:24:00;18.30;;;5.63;;
1479;SDS011;732;51.698;4.886;2023-02-04T10:26:32;18.20;;;4.10;;
1479;SDS011;732;51.698;4.886;2023-02-04T10:29:01;14.90;;;3.37;;
1479;SDS011;732;51.698;4.886;2023-02-04T10:31:36;23.03;;;3.93;;
1479;SDS011;732;51.698;4.886;2023-02-04T10:34:09;8.30;;;3.07;;
1479;SDS011;732;51.698;4.886;2023-02-04T10:36:44;17.63;;;4.17;;
1479;SDS011;732;51.698;4.886;2023-02-04T10:39:16;18.57;;;4.20;;
1479;SDS011;732;51.698;4.886;2023-02-04T10:41:50;13.00;;;4.30;;
1479;SDS011;732;51.698;4.886;2023-02-04T10:44:24;20.50;;;4.00;;
1479;SDS011;732;51.698;4.886;2023-02-04T10:47:00;20.47;;;4.20;;
1479;SDS011;732;51.698;4.886;2023-02-04T10:49:31;12.87;;;3.50;;
1479;SDS011;732;51.698;4.886;2023-02-04T10:52:00;11.10;;;2.90;;
1479;SDS011;732;51.698;4.886;2023-02-04T10:54:32;14.63;;;3.80;;
1479;SDS011;732;51.698;4.886;2023-02-04T10:57:07;20.87;;;3.70;;
1479;SDS011;732;51.698;4.886;2023-02-04T10:59:47;13.67;;;3.70;;
1479;SDS011;732;51.698;4.886;2023-02-04T11:02:32;13.10;;;3.80;;
1479;SDS011;732;51.698;4.886;2023-02-04T11:05:12;9.87;;;3.07;;
1479;SDS011;732;51.698;4.886;2023-02-04T11:07:43;14.30;;;3.33;;
1479;SDS011;732;51.698;4.886;2023-02-04T11:10:13;15.03;;;3.27;;
1479;SDS011;732;51.698;4.886;2023-02-04T11:12:45;16.00;;;3.33;;
1479;SDS011;732;51.698;4.886;2023-02-04T11:15:37;10.50;;;3.07;;
1479;SDS011;732;51.698;4.886;2023-02-04T11:18:26;9.97;;;3.30;;
1479;SDS011;732;51.698;4.886;2023-02-04T11:20:58;10.33;;;3.97;;
1479;SDS011;732;51.698;4.886;2023-02-04T11:23:29;18.57;;;3.30;;
1479;SDS011;732;51.698;4.886;2023-02-04T11:26:01;19.10;;;3.83;;
1479;SDS011;732;51.698;4.886;2023-02-04T11:28:44;18.43;;;4.27;;
1479;SDS011;732;51.698;4.886;2023-02-04T11:31:27;14.30;;;4.00;;
1479;SDS011;732;51.698;4.886;2023-02-04T11:37:26;17.90;;;4.07;;
1479;SDS011;732;51.698;4.886;2023-02-04T11:40:13;10.97;;;3.53;;
1479;SDS011;732;51.698;4.886;2023-02-04T11:42:57;12.83;;;3.70;;
1479;SDS011;732;51.698;4.886;2023-02-04T11:45:30;11.80;;;3.30;;
1479;SDS011;732;51.698;4.886;2023-02-04T11:48:01;16.73;;;3.97;;
1479;SDS011;732;51.698;4.886;2023-02-04T11:50:41;9.23;;;2.70;;
1479;SDS011;732;51.698;4.886;2023-02-04T11:53:10;10.13;;;3.40;;
1479;SDS011;732;51.698;4.886;2023-02-04T11:55:43;11.30;;;3.93;;
1479;SDS011;732;51.698;4.886;2023-02-04T11:58:14;8.47;;;4.10;;
1479;SDS011;732;51.698;4.886;2023-02-04T12:00:45;10.87;;;4.00;;
1479;SDS011;732;51.698;4.886;2023-02-04T12:03:20;11.73;;;3.53;;
1479;SDS011;732;51.698;4.886;2023-02-04T12:05:53;12.90;;;3.63;;
1479;SDS011;732;51.698;4.886;2023-02-04T12:08:26;13.50;;;4.30;;
1479;SDS011;732;51.698;4.886;2023-02-04T12:11:00;15.27;;;3.87;;
1479;SDS011;732;51.698;4.886;2023-02-04T12:13:33;16.50;;;3.27;;
1479;SDS011;732;51.698;4.886;2023-02-04T12:16:15;13.70;;;3.40;;
1479;SDS011;732;51.698;4.886;2023-02-04T12:18:44;10.03;;;3.80;;
1479;SDS011;732;51.698;4.886;2023-02-04T12:21:14;15.80;;;3.33;;
1479;SDS011;732;51.698;4.886;2023-02-04T12:23:44;14.03;;;3.70;;
1479;SDS011;732;51.698;4.886;2023-02-04T12:26:12;11.27;;;3.50;;
1479;SDS011;732;51.698;4.886;2023-02-04T12:28:41;11.17;;;3.40;;
1479;SDS011;732;51.698;4.886;2023-02-04T12:31:09;16.77;;;3.20;;
1479;SDS011;732;51.698;4.886;2023-02-04T12:33:38;14.53;;;3.40;;
1479;SDS011;732;51.698;4.886;2023-02-04T12:36:09;8.70;;;3.20;;
1479;SDS011;732;51.698;4.886;2023-02-04T12:38:38;9.87;;;2.33;;
1479;SDS011;732;51.698;4.886;2023-02-04T12:41:07;12.47;;;3.40;;
1479;SDS011;732;51.698;4.886;2023-02-04T12:43:36;14.30;;;3.13;;
1479;SDS011;732;51.698;4.886;2023-02-04T12:46:05;9.50;;;2.83;;
1479;SDS011;732;51.698;4.886;2023-02-04T12:48:33;7.23;;;3.10;;
1479;SDS011;732;51.698;4.886;2023-02-04T12:51:06;12.13;;;3.43;;
1479;SDS011;732;51.698;4.886;2023-02-04T12:53:35;19.70;;;3.47;;
1479;SDS011;732;51.698;4.886;2023-02-04T12:56:05;12.87;;;3.80;;
1479;SDS011;732;51.698;4.886;2023-02-04T12:58:36;10.20;;;2.90;;
1479;SDS011;732;51.698;4.886;2023-02-04T13:01:04;6.33;;;2.80;;
1479;SDS011;732;51.698;4.886;2023-02-04T13:03:33;6.53;;;2.30;;
1479;SDS011;732;51.698;4.886;2023-02-04T13:06:02;14.63;;;4.27;;
1479;SDS011;732;51.698;4.886;2023-02-04T13:08:31;13.00;;;2.70;;
1479;SDS011;732;51.698;4.886;2023-02-04T13:11:00;6.50;;;2.73;;
1479;SDS011;732;51.698;4.886;2023-02-04T13:13:30;6.03;;;2.87;;
1479;SDS011;732;51.698;4.886;2023-02-04T13:15:58;10.73;;;3.77;;
1479;SDS011;732;51.698;4.886;2023-02-04T13:18:27;13.53;;;3.40;;
1479;SDS011;732;51.698;4.886;2023-02-04T13:20:55;11.67;;;3.00;;
1479;SDS011;732;51.698;4.886;2023-02-04T13:23:24;14.87;;;3.70;;
1479;SDS011;732;51.698;4.886;2023-02-04T13:25:52;9.93;;;3.07;;
1479;SDS011;732;51.698;4.886;2023-02-04T13:28:21;15.13;;;3.40;;
1479;SDS011;732;51.698;4.886;2023-02-04T13:30:51;18.77;;;3.67;;
1479;SDS011;732;51.698;4.886;2023-02-04T13:33:20;8.33;;;2.93;;
1479;SDS011;732;51.698;4.886;2023-02-04T13:35:49;11.57;;;3.40;;
1479;SDS011;732;51.698;4.886;2023-02-04T13:38:18;11.63;;;3.17;;
1479;SDS011;732;51.698;4.886;2023-02-04T13:40:46;8.83;;;3.23;;
1479;SDS011;732;51.698;4.886;2023-02-04T13:43:15;12.43;;;4.27;;
1479;SDS011;732;51.698;4.886;2023-02-04T13:45:44;7.27;;;2.87;;
1479;SDS011;732;51.698;4.886;2023-02-04T13:48:15;8.60;;;2.90;;
1479;SDS011;732;51.698;4.886;2023-02-04T13:50:44;9.13;;;4.27;;
1479;SDS011;732;51.698;4.886;2023-02-04T13:53:12;6.67;;;3.33;;
1479;SDS011;732;51.698;4.886;2023-02-04T13:55:41;9.03;;;4.37;;
1479;SDS011;732;51.698;4.886;2023-02-04T13:58:09;13.07;;;4.43;;
1479;SDS011;732;51.698;4.886;2023-02-04T14:00:38;12.13;;;3.70;;
1479;SDS011;732;51.698;4.886;2023-02-04T14:03:07;9.10;;;3.53;;
1479;SDS011;732;51.698;4.886;2023-02-04T14:05:37;16.97;;;5.73;;
1479;SDS011;732;51.698;4.886;2023-02-04T14:08:05;18.87;;;4.33;;
1479;SDS011;732;51.698;4.886;2023-02-04T14:10:34;10.13;;;4.17;;
1479;SDS011;732;51.698;4.886;2023-02-04T14:13:04;11.37;;;4.00;;
1479;SDS011;732;51.698;4.886;2023-02-04T14:15:33;16.03;;;5.20;;
1479;SDS011;732;51.698;4.886;2023-02-04T14:18:03;9.00;;;4.03;;
1479;SDS011;732;51.698;4.886;2023-02-04T14:20:32;18.70;;;5.37;;
1479;SDS011;732;51.698;4.886;2023-02-04T14:23:02;12.20;;;3.63;;
1479;SDS011;732;51.698;4.886;2023-02-04T14:25:31;9.50;;;4.03;;
1479;SDS011;732;51.698;4.886;2023-02-04T14:28:00;9.30;;;4.67;;
1479;SDS011;732;51.698;4.886;2023-02-04T14:30:29;15.70;;;5.10;;
1479;SDS011;732;51.698;4.886;2023-02-04T14:32:59;16.13;;;4.50;;
1479;SDS011;732;51.698;4.886;2023-02-04T14:35:27;11.03;;;6.47;;
1479;SDS011;732;51.698;4.886;2023-02-04T14:37:56;8.83;;;4.47;;
1479;SDS011;732;51.698;4.886;2023-02-04T14:40:28;9.73;;;4.10;;
1479;SDS011;732;51.698;4.886;2023-02-04T14:42:57;12.40;;;5.10;;
1479;SDS011;732;51.698;4.886;2023-02-04T14:45:27;12.67;;;4.23;;
1479;SDS011;732;51.698;4.886;2023-02-04T14:47:55;13.10;;;4.87;;
1479;SDS011;732;51.698;4.886;2023-02-04T14:50:25;16.70;;;5.80;;
1479;SDS011;732;51.698;4.886;2023-02-04T14:52:56;11.17;;;5.83;;
1479;SDS011;732;51.698;4.886;2023-02-04T14:55:24;12.10;;;4.63;;
1479;SDS011;732;51.698;4.886;2023-02-04T14:57:55;15.13;;;4.70;;
1479;SDS011;732;51.698;4.886;2023-02-04T15:00:24;11.53;;;4.20;;
1479;SDS011;732;51.698;4.886;2023-02-04T15:02:53;12.03;;;5.13;;
1479;SDS011;732;51.698;4.886;2023-02-04T15:05:21;15.03;;;5.30;;
1479;SDS011;732;51.698;4.886;2023-02-04T15:07:51;12.53;;;4.50;;
1479;SDS011;732;51.698;4.886;2023-02-04T15:10:19;16.03;;;4.50;;
1479;SDS011;732;51.698;4.886;2023-02-04T15:12:50;12.57;;;4.60;;
1479;SDS011;732;51.698;4.886;2023-02-04T15:15:22;13.43;;;4.90;;
1479;SDS011;732;51.698;4.886;2023-02-04T15:17:50;18.10;;;5.00;;
1479;SDS011;732;51.698;4.886;2023-02-04T15:20:19;10.30;;;4.30;;
1479;SDS011;732;51.698;4.886;2023-02-04T15:22:47;18.53;;;5.40;;
1479;SDS011;732;51.698;4.886;2023-02-04T15:25:19;13.83;;;4.60;;
1479;SDS011;732;51.698;4.886;2023-02-04T15:27:47;13.47;;;6.43;;
1479;SDS011;732;51.698;4.886;2023-02-04T15:30:16;9.37;;;4.73;;
1479;SDS011;732;51.698;4.886;2023-02-04T15:32:47;15.20;;;6.10;;